Time;durP1;ratioP1;P1;durP2;ratioP2;P2;SDS_P1;SDS_P2;PMS_P1;PMS_P2;Temp;Humidity;BMP_temperature;BMP_pressure;BME280_temperature;BME280_humidity;BME280_pressure;Samples;Min_cycle;Max_cycle;Signal;HPM_P1;HPM_P2
2022/10/06 00:00:52;;;;;;;7.05;1.77;;;16.10;99.90;;;;;;4928134;29;20032;-88
2022/10/06 00:03:21;;;;;;;5.43;1.13;;;16.10;99.90;;;;;;4928293;29;20462;-88
2022/10/06 00:05:48;;;;;;;1.40;1.30;;;16.10;99.90;;;;;;4928414;29;20032;-88
2022/10/06 00:08:14;;;;;;;6.22;0.93;;;16.10;99.90;;;;;;4928773;29;20044;-88
2022/10/06 00:10:40;;;;;;;2.90;1.52;;;16.00;99.90;;;;;;4928570;29;20028;-88
2022/10/06 00:13:06;;;;;;;2.67;0.88;;;16.00;99.90;;;;;;4928702;29;20035;-88
2022/10/06 00:15:33;;;;;;;2.40;1.35;;;16.00;99.90;;;;;;4928621;29;20509;-88
2022/10/06 00:18:00;;;;;;;2.03;1.10;;;16.00;99.90;;;;;;4928324;29;20460;-87
2022/10/06 00:20:27;;;;;;;7.10;2.35;;;16.00;99.90;;;;;;4928527;29;20036;-88
2022/10/06 00:22:53;;;;;;;5.43;1.08;;;16.00;99.90;;;;;;4928542;29;20036;-87
2022/10/06 00:25:21;;;;;;;3.28;1.02;;;16.00;99.90;;;;;;4928368;29;20054;-88
2022/10/06 00:27:50;;;;;;;3.85;1.65;;;16.00;99.90;;;;;;4929658;29;20024;-88
2022/10/06 00:30:20;;;;;;;5.65;1.27;;;16.00;99.90;;;;;;4928593;29;20136;-88
2022/10/06 00:32:51;;;;;;;2.65;1.10;;;15.90;99.90;;;;;;4929705;29;20486;-87
2022/10/06 00:35:18;;;;;;;11.07;1.80;;;15.90;99.90;;;;;;4928331;29;20032;-88
2022/10/06 00:37:43;;;;;;;4.32;1.65;;;15.90;99.90;;;;;;4928385;29;20028;-87
2022/10/06 00:40:09;;;;;;;3.35;1.30;;;15.90;99.90;;;;;;4912577;29;20512;-87
2022/10/06 00:42:50;;;;;;;7.22;1.85;;;15.90;99.90;;;;;;4912450;29;20036;-88
2022/10/06 00:45:19;;;;;;;6.97;2.08;;;15.90;99.90;;;;;;4944323;29;20434;-88
2022/10/06 00:47:45;;;;;;;2.80;0.95;;;15.80;99.90;;;;;;4928616;29;20032;-88
2022/10/06 00:50:13;;;;;;;2.20;1.63;;;15.80;99.90;;;;;;4929701;29;20031;-88
2022/10/06 00:52:40;;;;;;;2.50;0.90;;;15.80;99.90;;;;;;4909300;29;20035;-88
2022/10/06 00:55:10;;;;;;;2.00;1.48;;;15.80;99.90;;;;;;4928247;29;20048;-87
2022/10/06 00:57:38;;;;;;;4.75;1.10;;;15.70;99.90;;;;;;4928209;29;20036;-87
2022/10/06 01:00:06;;;;;;;5.00;1.85;;;15.70;99.90;;;;;;4928072;29;20028;-87
2022/10/06 01:02:38;;;;;;;2.10;1.13;;;15.80;99.90;;;;;;4916818;29;20028;-87
2022/10/06 01:05:07;;;;;;;11.48;1.75;;;15.70;99.90;;;;;;4930722;29;20413;-87
2022/10/06 01:07:32;;;;;;;6.30;1.15;;;15.70;99.90;;;;;;4920177;29;20123;-88
2022/10/06 01:09:58;;;;;;;8.30;2.40;;;15.70;99.90;;;;;;4920681;29;20021;-88
2022/10/06 01:12:27;;;;;;;11.07;2.05;;;15.70;99.90;;;;;;4931667;29;20228;-88
2022/10/06 01:14:55;;;;;;;4.80;1.60;;;15.60;99.90;;;;;;4935690;29;20024;-88
2022/10/06 01:17:28;;;;;;;8.43;1.88;;;15.70;99.90;;;;;;4930727;29;20127;-87
2022/10/06 01:19:59;;;;;;;6.00;1.45;;;15.70;99.90;;;;;;4912904;29;20032;-88
2022/10/06 01:22:34;;;;;;;7.80;2.45;;;15.60;99.90;;;;;;4912304;29;20021;-87
2022/10/06 01:25:01;;;;;;;9.93;1.60;;;;;;;;;;4930826;29;20029;-87
2022/10/06 01:27:30;;;;;;;4.93;1.42;;;15.60;99.90;;;;;;4931235;29;20024;-88
2022/10/06 01:29:57;;;;;;;5.05;1.88;;;15.60;99.90;;;;;;4931240;29;20024;-88
2022/10/06 01:32:25;;;;;;;3.47;1.52;;;15.60;99.90;;;;;;4931126;29;20036;-87
2022/10/06 01:34:53;;;;;;;1.65;0.70;;;15.60;99.90;;;;;;4915600;29;20020;-88
2022/10/06 01:37:20;;;;;;;2.67;1.30;;;15.60;99.90;;;;;;4930901;29;20035;-87
2022/10/06 01:39:46;;;;;;;1.98;1.13;;;15.50;99.90;;;;;;4930913;29;20100;-87
2022/10/06 01:42:12;;;;;;;4.15;1.33;;;15.50;99.90;;;;;;4915261;29;20028;-88
2022/10/06 01:44:38;;;;;;;6.78;2.00;;;15.50;99.90;;;;;;4899806;29;20040;-88
2022/10/06 01:47:05;;;;;;;5.00;1.30;;;15.50;99.90;;;;;;4930906;29;20024;-87
2022/10/06 01:49:31;;;;;;;5.63;1.00;;;15.40;99.90;;;;;;4930810;29;20035;-88
2022/10/06 01:51:57;;;;;;;3.15;1.65;;;15.40;99.90;;;;;;4912150;29;20029;-88
2022/10/06 01:54:23;;;;;;;1.58;1.33;;;15.40;99.90;;;;;;4913152;29;20045;-87
2022/10/06 01:56:48;;;;;;;5.68;1.30;;;15.40;99.90;;;;;;4912162;29;20099;-87
2022/10/06 01:59:15;;;;;;;11.15;1.67;;;15.40;99.90;;;;;;4912336;29;20037;-87
2022/10/06 02:01:41;;;;;;;3.75;1.30;;;15.40;99.90;;;;;;4915427;29;20512;-87
2022/10/06 02:04:07;;;;;;;5.25;2.28;;;15.40;99.90;;;;;;4914985;29;20056;-87
2022/10/06 02:06:33;;;;;;;1.88;1.05;;;15.30;99.90;;;;;;4915050;29;20040;-87
2022/10/06 02:09:02;;;;;;;7.78;1.15;;;15.30;99.90;;;;;;4931705;29;20075;-87
2022/10/06 02:11:28;;;;;;;6.70;2.50;;;15.30;99.90;;;;;;4915412;29;20024;-88
2022/10/06 02:13:54;;;;;;;2.30;1.55;;;15.30;99.90;;;;;;4930552;29;20187;-87
2022/10/06 02:16:20;;;;;;;3.40;1.65;;;15.30;99.90;;;;;;4914483;29;20044;-88
2022/10/06 02:18:46;;;;;;;6.82;1.13;;;15.30;99.90;;;;;;4914652;29;20024;-88
2022/10/06 02:21:22;;;;;;;5.18;1.50;;;15.30;99.90;;;;;;4931559;29;20086;-87
2022/10/06 02:23:48;;;;;;;4.45;1.70;;;15.30;99.90;;;;;;4930164;29;20067;-87
2022/10/06 02:26:16;;;;;;;0.88;0.60;;;15.20;99.90;;;;;;4914820;29;20025;-87
2022/10/06 02:28:46;;;;;;;1.75;1.00;;;15.20;99.90;;;;;;4930463;29;20030;-87
2022/10/06 02:31:15;;;;;;;5.05;1.42;;;15.20;99.90;;;;;;4930197;29;20039;-87
2022/10/06 02:33:42;;;;;;;7.88;1.92;;;15.20;99.90;;;;;;4914358;29;20035;-87
2022/10/06 02:36:11;;;;;;;7.97;2.17;;;15.20;99.90;;;;;;4929755;29;20032;-87
2022/10/06 02:38:38;;;;;;;9.52;1.52;;;15.20;99.90;;;;;;4930248;29;20412;-87
2022/10/06 02:41:07;;;;;;;5.07;2.00;;;15.10;99.90;;;;;;4929778;29;20091;-87
2022/10/06 02:43:34;;;;;;;3.22;2.08;;;15.10;99.90;;;;;;4898922;29;20036;-87
2022/10/06 02:46:11;;;;;;;4.65;1.48;;;15.10;99.90;;;;;;4929811;29;20024;-87
2022/10/06 02:48:39;;;;;;;13.98;5.22;;;15.10;99.90;;;;;;4929960;29;20031;-87
2022/10/06 02:51:10;;;;;;;8.50;1.85;;;15.10;99.90;;;;;;4914088;29;20055;-86
2022/10/06 02:53:38;;;;;;;7.93;2.47;;;15.10;99.90;;;;;;4914159;29;20028;-87
2022/10/06 02:56:11;;;;;;;4.13;1.65;;;15.00;99.90;;;;;;4931105;29;20034;-88
2022/10/06 02:58:41;;;;;;;5.65;2.20;;;15.10;99.90;;;;;;4913985;29;20103;-87
2022/10/06 03:01:17;;;;;;;8.90;2.35;;;15.00;99.90;;;;;;4913408;29;20107;-87
2022/10/06 03:03:45;;;;;;;6.03;1.08;;;15.00;99.90;;;;;;4905467;29;20040;-87
2022/10/06 03:06:22;;;;;;;10.95;3.17;;;15.00;99.90;;;;;;4924305;29;20024;-87
2022/10/06 03:09:24;;;;;;;8.48;3.42;;;14.90;99.90;;;;;;4907664;29;20033;-88
2022/10/06 03:11:51;;;;;;;4.68;1.67;;;15.00;99.90;;;;;;4895262;29;20040;-87
2022/10/06 03:14:27;;;;;;;7.65;1.90;;;14.90;99.90;;;;;;4896514;29;20029;-87
2022/10/06 03:16:55;;;;;;;13.05;2.83;;;14.90;99.90;;;;;;4927535;29;20171;-87
2022/10/06 03:19:27;;;;;;;14.45;1.95;;;14.90;99.90;;;;;;4913494;29;20071;-87
2022/10/06 03:21:53;;;;;;;6.30;1.58;;;14.90;99.90;;;;;;4895196;29;20127;-87
2022/10/06 03:24:21;;;;;;;9.05;2.50;;;14.90;99.90;;;;;;4880308;29;20080;-87
2022/10/06 03:26:52;;;;;;;1.98;0.80;;;14.90;99.90;;;;;;4910264;29;20024;-87
2022/10/06 03:29:19;;;;;;;7.10;1.77;;;14.80;99.90;;;;;;4894768;29;20028;-87
2022/10/06 03:31:50;;;;;;;6.68;1.88;;;14.80;99.90;;;;;;4927559;29;20020;-87
2022/10/06 03:34:18;;;;;;;8.73;2.85;;;14.80;99.90;;;;;;4898010;29;20052;-87
2022/10/06 03:36:45;;;;;;;8.00;1.85;;;14.80;99.90;;;;;;4913270;29;20058;-87
2022/10/06 03:39:11;;;;;;;3.15;1.60;;;14.80;99.90;;;;;;4913367;29;20028;-87
2022/10/06 03:41:38;;;;;;;9.35;2.70;;;14.80;99.90;;;;;;4929066;29;20055;-87
2022/10/06 03:44:06;;;;;;;2.10;1.30;;;14.70;99.90;;;;;;4928801;29;20039;-86
2022/10/06 03:46:35;;;;;;;6.35;2.05;;;14.70;99.90;;;;;;4912939;29;20048;-86
2022/10/06 03:49:03;;;;;;;4.35;1.52;;;14.70;99.90;;;;;;4913449;29;20039;-87
2022/10/06 03:51:37;;;;;;;10.80;2.85;;;14.70;99.90;;;;;;4934618;29;20011;-88
2022/10/06 03:54:09;;;;;;;1.88;1.27;;;14.70;99.90;;;;;;4932399;29;20075;-87
2022/10/06 03:56:39;;;;;;;5.47;2.28;;;14.70;99.90;;;;;;4932457;29;20032;-87
2022/10/06 03:59:08;;;;;;;5.15;1.65;;;14.70;99.90;;;;;;4928838;29;20040;-86
2022/10/06 04:01:43;;;;;;;3.03;1.45;;;14.60;99.90;;;;;;4897040;29;20039;-87
2022/10/06 04:04:11;;;;;;;3.03;1.10;;;14.60;99.90;;;;;;4928441;29;20052;-87
2022/10/06 04:06:41;;;;;;;5.20;1.95;;;14.60;99.90;;;;;;4928739;29;20031;-87
2022/10/06 04:09:12;;;;;;;12.35;2.63;;;14.60;99.90;;;;;;4928796;29;20025;-87
2022/10/06 04:11:39;;;;;;;3.20;1.67;;;14.60;99.90;;;;;;4928421;29;20027;-87
2022/10/06 04:14:10;;;;;;;7.93;2.30;;;14.60;99.90;;;;;;4928773;29;20024;-87
2022/10/06 04:16:39;;;;;;;8.05;3.13;;;14.50;99.90;;;;;;4909859;29;20029;-87
2022/10/06 04:19:09;;;;;;;10.07;2.55;;;14.50;99.90;;;;;;4910041;29;20052;-87
2022/10/06 04:21:39;;;;;;;10.35;2.17;;;14.50;99.90;;;;;;4909552;29;20048;-86
2022/10/06 04:24:09;;;;;;;5.05;1.67;;;14.50;99.90;;;;;;4909632;29;20044;-87
2022/10/06 04:26:47;;;;;;;5.45;2.75;;;14.50;99.90;;;;;;4920669;29;20031;-87
2022/10/06 04:29:14;;;;;;;9.48;2.67;;;14.50;99.90;;;;;;4928769;29;20028;-87
2022/10/06 04:31:41;;;;;;;15.23;3.25;;;14.50;99.90;;;;;;4928663;29;20078;-88
2022/10/06 04:34:12;;;;;;;6.78;2.50;;;14.40;99.90;;;;;;4928622;29;20028;-87
2022/10/06 04:36:41;;;;;;;6.32;2.05;;;14.40;99.90;;;;;;4928478;29;20047;-87
2022/10/06 04:39:11;;;;;;;10.65;2.92;;;14.40;99.90;;;;;;4928525;29;20098;-87
2022/10/06 04:41:40;;;;;;;6.05;2.08;;;14.40;99.90;;;;;;4928103;29;20052;-87
2022/10/06 04:44:09;;;;;;;2.53;1.45;;;14.40;99.90;;;;;;4928670;29;20036;-86
2022/10/06 04:46:35;;;;;;;4.13;2.38;;;14.40;99.90;;;;;;4916516;29;20047;-87
2022/10/06 04:49:02;;;;;;;8.68;3.03;;;14.40;99.90;;;;;;4932773;29;20017;-87
2022/10/06 04:51:31;;;;;;;14.38;3.15;;;14.30;99.90;;;;;;4906051;29;20024;-87
2022/10/06 04:53:59;;;;;;;6.80;3.00;;;14.30;99.90;;;;;;4915933;29;20409;-87
2022/10/06 04:56:29;;;;;;;9.02;2.75;;;14.30;99.90;;;;;;4928513;29;20112;-86
2022/10/06 04:58:58;;;;;;;7.13;2.97;;;14.30;99.90;;;;;;4925267;29;20119;-87
2022/10/06 05:01:24;;;;;;;7.18;3.22;;;;;;;;;;4924212;29;20040;-87
2022/10/06 05:03:53;;;;;;;16.00;3.03;;;14.30;99.90;;;;;;4914616;29;20462;-87
2022/10/06 05:06:22;;;;;;;5.75;2.10;;;14.30;99.90;;;;;;4922596;29;20052;-87
2022/10/06 05:08:50;;;;;;;4.32;1.95;;;14.20;99.90;;;;;;4914579;29;20111;-87
2022/10/06 05:11:17;;;;;;;6.20;2.13;;;14.20;99.90;;;;;;4931197;29;20035;-86
2022/10/06 05:13:43;;;;;;;12.18;3.80;;;14.20;99.90;;;;;;4914449;29;20128;-86
2022/10/06 05:16:15;;;;;;;3.40;1.75;;;14.00;99.90;;;;;;4914103;29;20027;-84
2022/10/06 05:18:44;;;;;;;5.65;3.17;;;13.90;99.90;;;;;;4925671;29;20029;-86
2022/10/06 05:21:13;;;;;;;13.82;3.42;;;13.70;99.90;;;;;;4928712;29;20025;-86
2022/10/06 05:23:40;;;;;;;7.00;2.60;;;13.70;99.90;;;;;;4913028;29;20029;-86
2022/10/06 05:26:07;;;;;;;11.13;3.75;;;;;;;;;;4912722;29;20029;-86
2022/10/06 05:28:34;;;;;;;9.48;2.70;;;13.60;99.90;;;;;;4904911;29;20029;-87
2022/10/06 05:31:10;;;;;;;9.25;2.35;;;13.60;99.90;;;;;;4902611;29;20110;-87
2022/10/06 05:33:37;;;;;;;11.27;4.38;;;13.70;99.90;;;;;;4915614;29;20032;-86
2022/10/06 05:36:12;;;;;;;14.07;4.03;;;13.60;99.90;;;;;;4915008;29;20044;-86
2022/10/06 05:38:39;;;;;;;9.55;2.95;;;13.50;99.90;;;;;;4929054;29;20410;-86
2022/10/06 05:41:08;;;;;;;3.45;2.60;;;13.40;99.90;;;;;;4928890;29;20028;-86
2022/10/06 05:43:38;;;;;;;6.97;2.75;;;13.40;99.90;;;;;;4919221;29;20028;-86
2022/10/06 05:46:11;;;;;;;10.52;3.28;;;13.50;99.90;;;;;;4913801;29;20056;-86
2022/10/06 05:48:37;;;;;;;10.90;3.72;;;13.60;99.90;;;;;;4914606;29;20087;-86
2022/10/06 05:51:06;;;;;;;8.38;2.53;;;13.40;99.90;;;;;;4894664;29;20045;-86
2022/10/06 05:53:35;;;;;;;11.65;2.75;;;13.30;99.90;;;;;;4930486;29;20474;-86
2022/10/06 05:56:04;;;;;;;10.98;3.17;;;13.30;99.90;;;;;;4921883;29;20069;-86
2022/10/06 05:58:31;;;;;;;9.75;2.58;;;13.30;99.90;;;;;;4923488;29;20024;-86
2022/10/06 06:01:12;;;;;;;14.77;2.63;;;13.30;99.90;;;;;;4926925;29;20051;-86
2022/10/06 06:03:41;;;;;;;4.80;3.13;;;13.30;99.90;;;;;;4929358;29;20076;-86
2022/10/06 06:06:22;;;;;;;20.52;3.53;;;13.30;99.90;;;;;;4919281;29;20035;-85
2022/10/06 06:08:57;;;;;;;19.90;3.88;;;13.20;99.90;;;;;;4913803;29;20028;-86
2022/10/06 06:11:30;;;;;;;6.50;2.03;;;13.20;99.90;;;;;;4914199;29;20579;-86
2022/10/06 06:14:07;;;;;;;11.80;4.65;;;13.20;99.90;;;;;;4930359;29;20047;-86
2022/10/06 06:16:35;;;;;;;12.30;4.18;;;13.20;99.90;;;;;;4904545;29;20041;-86
2022/10/06 06:19:02;;;;;;;9.00;3.20;;;13.20;99.90;;;;;;4915606;29;20032;-87
2022/10/06 06:21:28;;;;;;;16.65;3.35;;;13.20;99.90;;;;;;4930101;29;20107;-86
2022/10/06 06:23:55;;;;;;;3.78;2.85;;;13.10;99.90;;;;;;4929986;29;20036;-86
2022/10/06 06:26:26;;;;;;;7.55;2.92;;;13.10;99.90;;;;;;4909924;29;20028;-86
2022/10/06 06:28:57;;;;;;;7.60;4.47;;;13.10;99.90;;;;;;4901291;29;20028;-86
2022/10/06 06:31:25;;;;;;;;;;;13.10;99.90;;;;;;4917156;29;20075;-86
2022/10/06 06:33:55;;;;;;;14.57;2.35;;;13.10;99.90;;;;;;4923718;29;19916;-86
2022/10/06 06:36:30;;;;;;;9.32;3.25;;;13.10;99.90;;;;;;4910783;29;20032;-86
2022/10/06 06:38:57;;;;;;;12.38;5.15;;;13.10;99.90;;;;;;4926669;29;20067;-86
2022/10/06 06:41:26;;;;;;;7.10;3.28;;;13.10;99.90;;;;;;4910636;29;20032;-86
2022/10/06 06:43:59;;;;;;;8.55;4.18;;;13.10;99.90;;;;;;4910433;29;20032;-86
2022/10/06 06:46:30;;;;;;;27.50;4.88;;;13.10;99.90;;;;;;4910284;29;20040;-86
2022/10/06 06:49:05;;;;;;;17.17;4.90;;;13.10;99.90;;;;;;4910748;29;20037;-86
2022/10/06 06:51:39;;;;;;;13.02;3.25;;;13.10;99.90;;;;;;4910610;29;20111;-86
2022/10/06 06:54:06;;;;;;;8.52;2.50;;;13.00;99.90;;;;;;4910488;29;20035;-86
2022/10/06 06:56:37;;;;;;;17.33;5.15;;;13.10;99.90;;;;;;4910364;29;20032;-86
2022/10/06 06:59:07;;;;;;;12.77;4.63;;;13.10;99.90;;;;;;4910452;29;20130;-86
2022/10/06 07:01:33;;;;;;;4.93;2.30;;;13.10;99.90;;;;;;4910280;29;20344;-86
2022/10/06 07:03:59;;;;;;;7.45;3.90;;;13.10;99.90;;;;;;4903290;29;20048;-86
2022/10/06 07:06:30;;;;;;;7.50;2.53;;;13.10;99.90;;;;;;4929320;29;20031;-85
2022/10/06 07:08:59;;;;;;;7.97;3.25;;;13.10;99.90;;;;;;4944755;29;20044;-86
2022/10/06 07:11:33;;;;;;;16.55;4.22;;;13.10;99.90;;;;;;4944949;29;20039;-86
2022/10/06 07:14:04;;;;;;;5.93;2.75;;;13.10;99.90;;;;;;4944991;29;20064;-87
2022/10/06 07:25:07;;;;;;;13.45;2.92;;;13.20;99.90;;;;;;4928967;29;20497;-86
2022/10/06 07:27:49;;;;;;;7.38;2.92;;;13.20;99.90;;;;;;4929066;29;20095;-86
2022/10/06 07:30:24;;;;;;;17.25;6.25;;;13.20;99.90;;;;;;4929011;29;20071;-86
2022/10/06 07:32:55;;;;;;;9.38;3.65;;;13.20;99.90;;;;;;4927604;29;20051;-85
2022/10/06 07:35:24;;;;;;;8.27;4.65;;;13.20;99.90;;;;;;4944403;29;20124;-86
2022/10/06 07:37:54;;;;;;;15.52;3.60;;;13.30;99.90;;;;;;4944422;29;20027;-86
2022/10/06 07:40:22;;;;;;;13.13;4.38;;;13.30;99.90;;;;;;4944626;29;20095;-86
2022/10/06 07:42:50;;;;;;;15.88;3.78;;;13.30;99.90;;;;;;4928662;29;20088;-86
2022/10/06 07:45:37;;;;;;;8.45;3.85;;;13.30;99.90;;;;;;4913436;29;20028;-86
2022/10/06 07:48:13;;;;;;;13.35;2.95;;;13.30;99.90;;;;;;4944255;29;20020;-86
2022/10/06 07:50:40;;;;;;;10.02;2.75;;;13.30;99.90;;;;;;4927998;29;20039;-86
2022/10/06 07:53:08;;;;;;;9.40;2.40;;;13.30;99.90;;;;;;4912379;29;20028;-86
2022/10/06 07:55:40;;;;;;;14.13;4.55;;;13.30;99.90;;;;;;4928562;29;20095;-86
2022/10/06 07:58:24;;;;;;;9.77;3.70;;;13.40;99.90;;;;;;4914972;29;20040;-86
2022/10/06 08:00:53;;;;;;;18.08;3.38;;;13.40;99.90;;;;;;4944204;29;20035;-86
2022/10/06 08:03:19;;;;;;;8.30;4.07;;;13.40;99.90;;;;;;4912813;29;20064;-86
2022/10/06 08:05:47;;;;;;;6.25;3.63;;;13.40;99.90;;;;;;4912612;29;20032;-86
2022/10/06 08:08:16;;;;;;;18.85;3.47;;;13.40;99.90;;;;;;4926289;29;20047;-86
2022/10/06 08:10:42;;;;;;;5.55;1.77;;;13.50;99.90;;;;;;4929421;29;20031;-85
2022/10/06 08:13:09;;;;;;;18.45;4.40;;;13.50;99.90;;;;;;4928062;29;20625;-86
2022/10/06 08:15:35;;;;;;;9.50;3.70;;;13.50;99.90;;;;;;4927937;29;20055;-85
2022/10/06 08:18:02;;;;;;;13.85;3.00;;;13.50;99.90;;;;;;4944052;29;20051;-86
2022/10/06 08:20:28;;;;;;;19.00;4.90;;;13.60;99.90;;;;;;4930907;29;20088;-85
2022/10/06 08:22:54;;;;;;;9.15;2.50;;;13.60;99.90;;;;;;4932395;29;20040;-86
2022/10/06 08:25:20;;;;;;;6.10;3.47;;;13.60;99.90;;;;;;4931982;29;20099;-85
2022/10/06 08:27:46;;;;;;;14.23;2.60;;;13.60;99.90;;;;;;4916435;29;20031;-85
2022/10/06 08:30:12;;;;;;;12.05;3.78;;;13.70;99.90;;;;;;4932020;29;20397;-86
2022/10/06 08:32:41;;;;;;;7.05;2.03;;;13.70;99.90;;;;;;4932095;29;20035;-86
2022/10/06 08:35:10;;;;;;;19.73;3.70;;;13.80;99.90;;;;;;4933164;29;20092;-86
2022/10/06 08:37:36;;;;;;;14.02;3.60;;;13.80;99.90;;;;;;4929369;29;20032;-87
2022/10/06 08:40:02;;;;;;;7.50;3.08;;;13.90;99.90;;;;;;4919694;29;20092;-86
2022/10/06 08:42:31;;;;;;;10.00;3.80;;;13.90;99.90;;;;;;4933111;29;20055;-86
2022/10/06 08:45:02;;;;;;;12.85;3.00;;;13.90;99.90;;;;;;4915841;29;20040;-86
2022/10/06 08:47:32;;;;;;;10.35;2.80;;;14.00;99.90;;;;;;4931684;29;20028;-86
2022/10/06 08:49:59;;;;;;;21.10;4.38;;;14.00;99.90;;;;;;4933069;29;20028;-86
2022/10/06 08:52:46;;;;;;;3.72;2.40;;;14.10;99.90;;;;;;4931594;29;20036;-87
2022/10/06 08:55:18;;;;;;;10.82;2.85;;;14.10;99.90;;;;;;4915590;29;20056;-86
2022/10/06 08:57:57;;;;;;;8.32;3.13;;;14.50;99.90;;;;;;4931528;29;20032;-87
2022/10/06 09:00:23;;;;;;;8.70;3.10;;;14.30;99.90;;;;;;4947461;29;20043;-86
2022/10/06 09:02:49;;;;;;;19.27;3.45;;;14.30;99.90;;;;;;4915614;29;20032;-86
2022/10/06 09:05:24;;;;;;;6.75;2.70;;;14.40;99.90;;;;;;4931211;29;20044;-86
2022/10/06 09:08:09;;;;;;;8.13;2.28;;;14.50;99.90;;;;;;4915664;29;20055;-87
2022/10/06 09:10:52;;;;;;;19.80;3.65;;;14.60;99.90;;;;;;4930456;29;20099;-87
2022/10/06 09:13:27;;;;;;;11.80;3.13;;;14.60;99.90;;;;;;4932521;29;20371;-88
2022/10/06 09:15:58;;;;;;;10.73;3.58;;;14.70;99.90;;;;;;4931124;29;20040;-87
2022/10/06 09:18:24;;;;;;;6.57;1.95;;;14.80;99.90;;;;;;4943245;29;20104;-87
2022/10/06 09:21:00;;;;;;;10.43;3.20;;;14.90;99.90;;;;;;4925697;29;20119;-87
2022/10/06 09:23:46;;;;;;;8.13;2.65;;;14.90;99.90;;;;;;4918433;29;20040;-87
2022/10/06 09:26:15;;;;;;;12.98;2.67;;;14.90;99.90;;;;;;4912558;29;20039;-87
2022/10/06 09:28:44;;;;;;;14.30;3.90;;;15.00;99.90;;;;;;4912229;29;20032;-87
2022/10/06 09:31:24;;;;;;;5.03;2.20;;;15.00;99.90;;;;;;4923058;29;20029;-87
2022/10/06 09:33:53;;;;;;;9.18;3.33;;;15.00;99.90;;;;;;4929775;29;20028;-88
2022/10/06 09:36:19;;;;;;;2.13;1.42;;;15.10;99.90;;;;;;4913050;29;20032;-88
2022/10/06 09:38:46;;;;;;;7.97;2.60;;;15.10;99.90;;;;;;4912237;29;20028;-88
2022/10/06 09:41:14;;;;;;;10.60;3.20;;;15.50;99.90;;;;;;4917105;29;20028;-87
2022/10/06 09:43:50;;;;;;;9.18;3.10;;;15.20;99.90;;;;;;4930442;29;20040;-88
2022/10/06 09:46:30;;;;;;;12.48;2.90;;;15.20;99.90;;;;;;4930702;29;20034;-87
2022/10/06 09:49:06;;;;;;;;;;;15.10;99.90;;;;;;4920569;29;20060;-87
2022/10/06 09:51:36;;;;;;;11.32;2.88;;;15.10;99.90;;;;;;4922017;29;19911;-88
2022/10/06 09:54:15;;;;;;;10.07;2.08;;;15.10;99.90;;;;;;4923481;29;20036;-87
2022/10/06 09:56:43;;;;;;;10.80;4.35;;;15.10;99.90;;;;;;4928853;29;20087;-87
2022/10/06 09:59:21;;;;;;;11.00;2.33;;;15.20;99.90;;;;;;4913498;29;20047;-88
2022/10/06 10:01:52;;;;;;;11.30;3.90;;;15.20;99.90;;;;;;4911362;29;20028;-88
2022/10/06 10:04:25;;;;;;;12.55;1.83;;;15.20;99.90;;;;;;4911304;29;20053;-88
2022/10/06 10:06:52;;;;;;;8.85;2.67;;;15.20;99.90;;;;;;4930195;29;20488;-88
2022/10/06 10:09:28;;;;;;;7.07;2.00;;;15.20;99.90;;;;;;4930061;29;20020;-88
2022/10/06 10:12:32;;;;;;;5.82;2.20;;;15.30;99.90;;;;;;4913316;29;20052;-87
2022/10/06 10:15:21;;;;;;;5.93;2.35;;;15.30;99.90;;;;;;4911404;29;20092;-87
2022/10/06 10:17:54;;;;;;;2.22;1.45;;;15.30;99.90;;;;;;4911527;29;20040;-87
2022/10/06 10:20:50;;;;;;;4.50;1.50;;;15.30;99.90;;;;;;4895343;29;20052;-86
2022/10/06 10:23:18;;;;;;;9.93;2.17;;;15.30;99.90;;;;;;4895693;29;20040;-88
2022/10/06 10:26:18;;;;;;;10.95;2.25;;;15.30;99.90;;;;;;4896805;29;20031;-87
2022/10/06 10:29:19;;;;;;;8.18;2.78;;;15.30;99.90;;;;;;4895707;29;20057;-88
2022/10/06 10:31:50;;;;;;;9.77;2.10;;;15.30;99.90;;;;;;4912481;29;20032;-88
2022/10/06 10:34:37;;;;;;;9.50;2.50;;;15.40;99.90;;;;;;4911126;29;20056;-88
2022/10/06 10:37:13;;;;;;;3.85;1.60;;;15.40;99.90;;;;;;4912257;29;20116;-88
2022/10/06 10:39:47;;;;;;;9.52;1.83;;;15.40;99.90;;;;;;4910834;29;20048;-88
2022/10/06 10:42:39;;;;;;;6.85;2.47;;;15.50;99.90;;;;;;4910388;29;20074;-88
2022/10/06 10:45:15;;;;;;;2.15;1.50;;;15.50;99.90;;;;;;4919195;29;20389;-87
2022/10/06 10:47:44;;;;;;;7.97;1.38;;;15.60;99.90;;;;;;4929052;29;20025;-87
2022/10/06 10:50:29;;;;;;;7.30;2.97;;;15.50;99.90;;;;;;4913645;29;20050;-88
2022/10/06 10:53:02;;;;;;;7.63;2.17;;;15.50;99.90;;;;;;4929483;29;20036;-88
2022/10/06 10:55:44;;;;;;;7.15;1.95;;;15.50;99.90;;;;;;4929871;29;20028;-87
2022/10/06 10:58:32;;;;;;;11.73;2.20;;;15.50;99.90;;;;;;4929587;29;20036;-88
2022/10/06 11:01:28;;;;;;;5.22;1.85;;;15.50;99.90;;;;;;4944957;29;20032;-87
2022/10/06 11:03:57;;;;;;;11.15;1.83;;;15.50;99.90;;;;;;4910183;29;20044;-87
2022/10/06 11:06:55;;;;;;;8.10;2.72;;;15.50;99.90;;;;;;4910548;29;20479;-87
2022/10/06 11:09:33;;;;;;;2.95;1.42;;;15.60;99.90;;;;;;4904917;29;20040;-87
2022/10/06 11:12:05;;;;;;;7.22;1.90;;;15.60;99.90;;;;;;4930659;29;20055;-87
2022/10/06 11:14:50;;;;;;;7.10;1.95;;;15.60;99.90;;;;;;4944930;29;20055;-86
2022/10/06 11:17:38;;;;;;;6.32;1.58;;;15.60;99.90;;;;;;4928904;29;20032;-87
2022/10/06 11:20:22;;;;;;;5.88;1.23;;;15.60;99.90;;;;;;4928962;29;20038;-87
2022/10/06 11:23:14;;;;;;;2.97;1.27;;;15.60;99.90;;;;;;4926498;29;20067;-87
2022/10/06 11:26:01;;;;;;;8.55;1.55;;;15.60;99.90;;;;;;4918926;29;20066;-87
2022/10/06 11:28:54;;;;;;;5.07;1.40;;;15.60;99.90;;;;;;4929105;29;20036;-87
2022/10/06 11:31:38;;;;;;;2.17;0.85;;;15.60;99.90;;;;;;4928859;29;20032;-87
2022/10/06 11:34:05;;;;;;;6.80;0.90;;;15.70;99.90;;;;;;4928965;29;20060;-88
2022/10/06 11:36:39;;;;;;;5.70;1.23;;;15.70;99.90;;;;;;4929928;29;20062;-88
2022/10/06 11:39:14;;;;;;;6.70;1.45;;;15.70;99.90;;;;;;4928603;29;20039;-88
2022/10/06 11:41:51;;;;;;;2.03;0.73;;;15.70;99.90;;;;;;4929348;29;20108;-88
2022/10/06 11:44:26;;;;;;;5.93;1.60;;;15.80;99.90;;;;;;4944949;29;20036;-88
2022/10/06 11:47:00;;;;;;;8.68;1.73;;;15.80;99.90;;;;;;4930231;29;20084;-88
2022/10/06 11:49:30;;;;;;;6.60;1.95;;;15.80;99.90;;;;;;4913095;29;20028;-88
2022/10/06 11:52:05;;;;;;;22.73;1.65;;;15.90;99.90;;;;;;4928730;29;20047;-88
2022/10/06 11:54:36;;;;;;;5.55;2.45;;;15.90;99.90;;;;;;4928564;29;20036;-88
2022/10/06 11:57:02;;;;;;;16.85;2.97;;;15.50;99.90;;;;;;4929280;29;20032;-88
2022/10/06 11:59:30;;;;;;;15.77;2.88;;;16.00;99.90;;;;;;4944678;29;20056;-87
2022/10/06 12:01:56;;;;;;;10.93;3.58;;;16.00;99.90;;;;;;4928843;29;20036;-88
2022/10/06 12:04:25;;;;;;;12.00;2.38;;;16.10;99.90;;;;;;4930302;29;20111;-88
2022/10/06 12:06:56;;;;;;;14.90;3.78;;;16.10;99.90;;;;;;4930058;29;20031;-88
2022/10/06 12:09:24;;;;;;;9.90;3.95;;;16.10;99.90;;;;;;4926976;29;20426;-87
2022/10/06 12:12:13;;;;;;;12.43;3.28;;;16.10;99.90;;;;;;4928277;29;20032;-87
2022/10/06 12:14:51;;;;;;;9.95;2.78;;;16.20;99.90;;;;;;4922265;29;20449;-88
2022/10/06 12:17:41;;;;;;;3.22;0.95;;;16.20;99.90;;;;;;4913011;29;20032;-88
2022/10/06 12:20:17;;;;;;;;;;;16.20;99.90;;;;;;4929081;29;20032;-87
2022/10/06 12:22:51;;;;;;;2.95;0.93;;;16.30;99.90;;;;;;4929691;29;19915;-86
2022/10/06 12:25:23;;;;;;;4.07;2.03;;;16.30;99.90;;;;;;4943642;29;20121;-87
2022/10/06 12:28:27;;;;;;;3.97;1.98;;;16.30;99.90;;;;;;4928475;29;20028;-88
2022/10/06 12:31:05;;;;;;;20.77;1.65;;;16.30;99.90;;;;;;4912434;29;20047;-87
2022/10/06 12:33:37;;;;;;;2.53;1.83;;;16.30;99.90;;;;;;4912671;29;20040;-88
2022/10/06 12:36:13;;;;;;;6.18;2.10;;;16.30;99.90;;;;;;4944399;29;20036;-87
2022/10/06 12:38:42;;;;;;;6.68;2.05;;;16.30;99.90;;;;;;4927621;29;20028;-87
2022/10/06 12:41:12;;;;;;;6.00;1.77;;;16.30;99.90;;;;;;4912531;29;20032;-87
2022/10/06 12:43:52;;;;;;;4.00;1.58;;;16.30;99.90;;;;;;4912479;29;20032;-87
2022/10/06 12:46:24;;;;;;;;;;;16.30;99.90;;;;;;4929959;29;20040;-88
2022/10/06 12:49:35;;;;;;;9.82;2.08;;;16.30;99.90;;;;;;4928195;29;19911;-87
2022/10/06 12:52:33;;;;;;;3.15;0.90;;;16.30;99.90;;;;;;4898841;29;20036;-87
2022/10/06 12:55:26;;;;;;;7.07;2.72;;;16.30;99.90;;;;;;4924790;29;20072;-87
2022/10/06 12:57:53;;;;;;;3.35;1.20;;;16.30;99.90;;;;;;4909462;29;20467;-88
2022/10/06 13:00:36;;;;;;;3.03;1.40;;;16.30;99.90;;;;;;4910827;29;20032;-87
2022/10/06 13:03:05;;;;;;;2.42;1.42;;;16.10;99.90;;;;;;4908975;29;20043;-87
2022/10/06 13:05:34;;;;;;;1.55;0.88;;;16.30;99.90;;;;;;4909358;29;20037;-88
2022/10/06 13:08:05;;;;;;;1.58;0.95;;;16.30;99.90;;;;;;4913699;29;20057;-88
2022/10/06 13:10:32;;;;;;;3.70;0.60;;;16.30;99.90;;;;;;4912497;29;20060;-88
2022/10/06 13:12:58;;;;;;;4.78;1.02;;;16.30;99.90;;;;;;4912610;29;20096;-87
2022/10/06 13:15:26;;;;;;;7.10;0.80;;;16.30;99.90;;;;;;4913618;29;20057;-88
2022/10/06 13:18:15;;;;;;;6.78;1.15;;;16.40;99.90;;;;;;4913511;29;20029;-88